Time;durP1;ratioP1;P1;durP2;ratioP2;P2;SDS_P1;SDS_P2;PMS_P1;PMS_P2;Temp;Humidity;BMP_temperature;BMP_pressure;BME280_temperature;BME280_humidity;BME280_pressure;Samples;Min_cycle;Max_cycle;Signal;HPM_P1;HPM_P2
2023/01/31 00:02:20;;;;;;;22.73;3.33;;;;;;;5.76;58.49;101297.44;20896827;28;20489;-86
2023/01/31 00:12:22;;;;;;;14.30;3.20;;;;;;;5.15;60.14;101305.19;20891744;28;20223;-87
2023/01/31 00:22:24;;;;;;;14.70;2.90;;;;;;;5.09;60.20;101303.44;20910073;28;20489;-86
2023/01/31 00:32:26;;;;;;;13.43;3.53;;;;;;;5.47;59.04;101305.22;20907873;28;20675;-88
2023/01/31 00:42:30;;;;;;;15.53;3.00;;;;;;;5.02;61.02;101308.41;20913361;28;20513;-86
2023/01/31 00:52:32;;;;;;;19.80;3.77;;;;;;;4.60;62.52;101297.03;20902913;28;20197;-86
2023/01/31 01:02:34;;;;;;;11.27;2.80;;;;;;;5.01;61.43;101287.22;20906631;28;20191;-85
2023/01/31 01:12:37;;;;;;;12.93;3.20;;;;;;;5.54;59.12;101289.16;20906032;28;20232;-87
2023/01/31 01:22:41;;;;;;;16.83;3.60;;;;;;;5.33;59.58;101282.53;20906970;28;20196;-86
2023/01/31 01:32:43;;;;;;;12.10;2.60;;;;;;;5.40;59.15;101287.91;20889768;28;20227;-87
2023/01/31 01:42:45;;;;;;;15.73;3.37;;;;;;;4.82;60.75;101277.53;20917816;28;20664;-88
2023/01/31 01:52:53;;;;;;;15.40;2.97;;;;;;;5.16;59.58;101287.38;20887392;28;20589;-86
2023/01/31 02:02:58;;;;;;;13.03;2.90;;;;;;;4.81;59.84;101284.19;20899706;28;20680;-87
2023/01/31 02:13:01;;;;;;;11.73;2.57;;;;;;;4.95;59.25;101285.47;20923003;28;20262;-85
2023/01/31 02:23:18;;;;;;;12.03;2.90;;;;;;;5.14;59.26;101306.31;20920176;28;20204;-86
2023/01/31 02:33:40;;;;;;;9.90;2.70;;;;;;;4.38;60.44;101313.72;20933297;28;20254;-87
2023/01/31 02:54:13;;;;;;;13.07;2.87;;;;;;;4.85;58.96;101307.63;20919967;28;20199;-86
2023/01/31 03:04:16;;;;;;;11.40;2.40;;;;;;;4.88;58.49;101307.13;20914214;28;20261;-86
2023/01/31 03:14:34;;;;;;;9.63;2.37;;;;;;;4.91;58.15;101301.84;20915012;28;20220;-86
2023/01/31 03:24:37;;;;;;;8.67;2.50;;;;;;;4.99;58.65;101281.06;20888838;28;20246;-86
2023/01/31 03:34:40;;;;;;;10.03;1.80;;;;;;;5.04;59.05;101267.19;20902127;28;20224;-86
2023/01/31 03:44:58;;;;;;;13.87;2.90;;;;;;;4.61;59.91;101235.53;20889833;28;20211;-85
2023/01/31 03:55:07;;;;;;;11.57;2.90;;;;;;;5.02;59.18;101238.78;20893829;28;20214;-86
2023/01/31 04:05:14;;;;;;;11.83;2.60;;;;;;;4.90;58.89;101226.97;20877186;28;20215;-86
2023/01/31 04:15:19;;;;;;;11.57;2.23;;;;;;;4.83;58.77;101215.16;20872467;28;20632;-86
2023/01/31 04:25:22;;;;;;;10.37;2.10;;;;;;;4.61;59.32;101213.28;20910314;28;20312;-85
2023/01/31 04:35:24;;;;;;;9.80;2.07;;;;;;;4.70;59.55;101219.22;20938275;28;20215;-85
2023/01/31 04:45:26;;;;;;;15.40;3.17;;;;;;;5.29;57.89;101220.09;20921840;28;20242;-87
2023/01/31 04:55:29;;;;;;;13.60;2.53;;;;;;;4.47;60.10;101200.88;20899663;28;20675;-87
2023/01/31 05:05:32;;;;;;;10.90;2.33;;;;;;;4.40;60.76;101191.88;20897930;28;20228;-85
2023/01/31 05:15:38;;;;;;;11.50;3.13;;;;;;;4.83;60.62;101182.59;20910083;28;20231;-85
2023/01/31 05:25:40;;;;;;;9.73;3.60;;;;;;;5.23;59.36;101159.84;20919879;28;20223;-86
2023/01/31 05:35:43;;;;;;;13.43;3.37;;;;;;;4.71;61.47;101152.16;20902030;28;20269;-87
2023/01/31 05:45:47;;;;;;;15.10;3.73;;;;;;;5.19;60.51;101150.34;20914789;28;20216;-86
2023/01/31 05:55:49;;;;;;;10.70;3.33;;;;;;;4.38;62.92;101149.56;20909369;28;20210;-86
2023/01/31 06:05:52;;;;;;;13.37;4.40;;;;;;;4.74;61.47;101134.09;20902019;28;20220;-86
2023/01/31 06:15:54;;;;;;;7.67;3.73;;;;;;;4.22;63.59;101108.78;20876426;28;20224;-86
2023/01/31 06:25:56;;;;;;;14.47;4.43;;;;;;;4.88;60.60;101106.66;20873298;28;20228;-85
2023/01/31 06:35:59;;;;;;;15.23;4.77;;;;;;;4.76;60.81;101131.03;20897591;28;20501;-85
2023/01/31 06:46:01;;;;;;;17.57;5.37;;;;;;;5.59;57.80;101121.09;20907434;28;20220;-86
2023/01/31 06:56:04;;;;;;;14.63;3.93;;;;;;;5.00;58.18;101122.06;20881927;28;20196;-86
2023/01/31 07:06:07;;;;;;;11.93;4.07;;;;;;;5.57;57.30;101131.66;20904379;28;20219;-85
2023/01/31 07:16:09;;;;;;;13.67;4.27;;;;;;;5.06;59.03;101126.56;20870538;28;20228;-85
2023/01/31 07:26:12;;;;;;;17.83;5.33;;;;;;;4.75;60.54;101138.56;20880870;28;20586;-85
2023/01/31 07:36:15;;;;;;;16.67;5.20;;;;;;;4.81;61.16;101133.84;20906128;28;20220;-86
2023/01/31 07:46:18;;;;;;;16.03;5.47;;;;;;;5.05;58.92;101124.03;20887566;28;20211;-86
2023/01/31 07:56:20;;;;;;;16.13;4.90;;;;;;;5.12;59.11;101118.25;20914436;28;20269;-86
2023/01/31 08:06:22;;;;;;;16.20;5.00;;;;;;;5.23;58.92;101095.78;20901895;28;20220;-85
2023/01/31 08:16:25;;;;;;;13.27;4.00;;;;;;;4.45;61.16;101089.00;20868831;28;20216;-87
2023/01/31 08:26:27;;;;;;;15.27;4.03;;;;;;;4.99;58.49;101072.22;20884198;28;20215;-86
2023/01/31 08:36:34;;;;;;;11.30;3.80;;;;;;;4.85;61.07;101073.75;20896725;28;20215;-87
2023/01/31 08:46:36;;;;;;;14.00;3.53;;;;;;;5.45;59.80;101079.75;20894622;28;20221;-86
2023/01/31 08:56:39;;;;;;;12.03;3.70;;;;;;;4.19;66.21;101078.69;20915314;28;20227;-86
2023/01/31 09:06:41;;;;;;;13.10;2.90;;;;;;;4.82;65.82;101074.28;20909023;28;20238;-87
2023/01/31 09:16:45;;;;;;;10.03;3.07;;;;;;;5.05;65.57;101060.00;20908397;28;20265;-87
2023/01/31 09:26:47;;;;;;;10.43;3.20;;;;;;;4.97;65.34;101022.34;20898470;28;20269;-86
2023/01/31 09:36:50;;;;;;;12.87;3.10;;;;;;;5.27;66.33;101038.44;20908012;28;20689;-87
2023/01/31 09:46:57;;;;;;;13.73;2.63;;;;;;;5.06;65.72;101020.72;20925177;28;20408;-87
2023/01/31 09:57:11;;;;;;;13.87;3.63;;;;;;;5.18;64.93;101017.75;20908025;28;20196;-87
2023/01/31 10:07:31;;;;;;;9.30;2.10;;;;;;;5.40;64.27;100998.09;20916100;28;20281;-85
2023/01/31 10:17:40;;;;;;;12.80;2.57;;;;;;;5.46;65.92;100986.69;20898395;28;20294;-86
2023/01/31 10:27:48;;;;;;;10.10;2.50;;;;;;;5.15;67.25;100970.94;20895530;28;20234;-87
2023/01/31 10:37:58;;;;;;;9.23;1.97;;;;;;;5.67;65.29;100967.28;20879481;28;20655;-87
2023/01/31 10:48:21;;;;;;;9.37;2.50;;;;;;;5.16;68.09;100946.72;20894029;28;20212;-87
2023/01/31 10:58:23;;;;;;;12.23;3.23;;;;;;;4.81;68.41;100942.59;20897691;28;20249;-86
2023/01/31 11:08:35;;;;;;;8.60;2.90;;;;;;;5.59;67.16;100920.41;20911468;28;20231;-87
2023/01/31 11:18:43;;;;;;;6.27;2.63;;;;;;;5.42;67.57;100923.44;20909712;28;20196;-87
2023/01/31 11:28:49;;;;;;;6.50;2.90;;;;;;;5.49;65.58;100896.13;20902050;28;20278;-87
2023/01/31 11:38:52;;;;;;;8.03;2.73;;;;;;;6.26;63.87;100889.56;20918135;28;20509;-86
2023/01/31 11:48:55;;;;;;;14.47;4.40;;;;;;;5.58;67.36;100872.19;20897923;28;20220;-87
2023/01/31 11:59:02;;;;;;;10.47;3.37;;;;;;;5.80;65.46;100874.78;20911516;28;20222;-87
2023/01/31 12:09:27;;;;;;;10.10;4.83;;;;;;;5.86;66.31;100859.69;20906629;28;20220;-87
2023/01/31 12:19:43;;;;;;;11.60;4.67;;;;;;;5.49;67.80;100868.25;20865841;28;20234;-86
2023/01/31 12:30:12;;;;;;;14.53;4.97;;;;;;;5.79;67.09;100848.00;20880501;28;20313;-87
2023/01/31 12:40:28;;;;;;;11.77;4.63;;;;;;;5.58;67.40;100832.31;20911135;28;20215;-87
2023/01/31 12:50:54;;;;;;;15.40;5.80;;;;;;;6.81;63.86;100816.03;20911745;28;20220;-87
2023/01/31 13:01:03;;;;;;;11.77;6.07;;;;;;;6.35;65.30;100825.63;20903108;28;20266;-86
2023/01/31 13:11:15;;;;;;;11.33;6.10;;;;;;;6.49;64.64;100818.34;20911469;28;20227;-86
2023/01/31 13:21:21;;;;;;;11.13;7.20;;;;;;;6.24;66.05;100818.41;20904344;28;20249;-86
2023/01/31 13:31:29;;;;;;;18.70;9.87;;;;;;;6.23;68.47;100822.31;20888110;28;20216;-86
2023/01/31 13:41:33;;;;;;;17.90;8.97;;;;;;;6.55;69.17;100824.78;20872355;28;20213;-86
2023/01/31 13:51:48;;;;;;;15.33;10.07;;;;;;;6.34;71.08;100810.00;20878219;28;20223;-87
2023/01/31 14:01:52;;;;;;;11.30;7.50;;;;;;;5.91;72.89;100817.88;20882263;28;20200;-88
2023/01/31 14:11:56;;;;;;;10.20;7.23;;;;;;;6.11;72.04;100809.50;20899282;28;20563;-87
2023/01/31 14:22:01;;;;;;;10.57;7.53;;;;;;;5.86;73.32;100794.72;20889831;28;20657;-89
2023/01/31 14:32:12;;;;;;;13.30;8.67;;;;;;;5.38;74.21;100803.31;20876666;28;20211;-86
2023/01/31 14:42:20;;;;;;;13.53;9.47;;;;;;;6.20;72.61;100811.72;20886381;28;20212;-86
2023/01/31 14:52:39;;;;;;;15.80;11.70;;;;;;;6.30;72.77;100803.34;20908881;28;20235;-86
2023/01/31 15:03:07;;;;;;;14.93;12.10;;;;;;;6.49;72.22;100808.03;20904459;28;20217;-87
2023/01/31 15:13:42;;;;;;;16.60;13.50;;;;;;;6.71;71.27;100827.25;20885125;28;20220;-86
2023/01/31 15:23:45;;;;;;;15.93;12.73;;;;;;;6.38;73.01;100841.81;20872492;28;20246;-86
2023/01/31 15:33:50;;;;;;;14.67;13.17;;;;;;;6.98;71.99;100837.19;20870621;28;20221;-84
2023/01/31 15:43:55;;;;;;;16.87;14.07;;;;;;;6.98;71.32;100846.41;20866231;28;20470;-88
2023/01/31 15:54:04;;;;;;;21.97;16.30;;;;;;;6.95;72.63;100840.56;20874001;28;20286;-87
2023/01/31 16:04:07;;;;;;;21.87;17.70;;;;;;;7.21;70.24;100844.94;20851935;28;20282;-85
2023/01/31 16:14:10;;;;;;;24.23;18.83;;;;;;;6.61;73.46;100880.28;20870437;28;20350;-85
2023/01/31 16:24:17;;;;;;;24.53;18.50;;;;;;;6.52;73.76;100862.44;20876461;28;20219;-84
2023/01/31 16:34:26;;;;;;;23.87;16.77;;;;;;;6.59;73.18;100859.38;20881580;28;20232;-84
2023/01/31 16:44:33;;;;;;;18.93;14.40;;;;;;;6.60;72.30;100878.63;20873121;28;20204;-87
2023/01/31 16:54:49;;;;;;;19.43;14.63;;;;;;;7.42;69.06;100862.41;20907415;28;20717;-88
2023/01/31 17:04:55;;;;;;;22.93;14.30;;;;;;;6.79;71.09;100887.25;20871237;28;20249;-85
2023/01/31 17:14:58;;;;;;;18.03;12.90;;;;;;;6.77;70.34;100901.47;20880214;28;20221;-88
2023/01/31 17:25:17;;;;;;;17.80;11.80;;;;;;;7.38;68.87;100889.25;20895472;28;20199;-84
2023/01/31 17:35:24;;;;;;;13.73;9.80;;;;;;;7.55;68.24;100887.78;20874808;28;20211;-84
2023/01/31 17:45:27;;;;;;;19.30;9.53;;;;;;;7.17;68.14;100877.34;20896578;28;20211;-83
2023/01/31 17:55:30;;;;;;;18.53;11.03;;;;;;;6.86;68.57;100871.84;20885331;28;20219;-84
2023/01/31 18:05:35;;;;;;;16.83;9.37;;;;;;;7.65;65.30;100872.06;20882147;28;20215;-87
2023/01/31 18:15:40;;;;;;;14.77;8.00;;;;;;;7.06;66.95;100870.13;20893457;28;20224;-84
2023/01/31 18:25:43;;;;;;;19.33;7.67;;;;;;;7.46;65.96;100869.94;20881834;28;20211;-83
2023/01/31 18:35:54;;;;;;;13.27;6.90;;;;;;;7.67;65.43;100875.41;20886717;28;20211;-85
2023/01/31 18:45:57;;;;;;;14.83;7.33;;;;;;;7.89;64.94;100882.22;20921979;28;20211;-85
2023/01/31 18:56:08;;;;;;;10.60;6.70;;;;;;;7.29;65.76;100900.22;20885425;28;20477;-89
2023/01/31 19:06:28;;;;;;;13.80;6.77;;;;;;;7.48;64.70;100915.22;20887552;28;20208;-84
2023/01/31 19:16:30;;;;;;;13.27;6.60;;;;;;;6.91;64.25;100923.22;20859408;28;20224;-86
2023/01/31 19:26:33;;;;;;;15.77;5.03;;;;;;;7.22;62.94;100925.69;20883631;28;20224;-87
2023/01/31 19:36:38;;;;;;;18.30;4.03;;;;;;;7.28;61.74;100923.69;20875825;28;20212;-85
2023/01/31 19:46:42;;;;;;;10.63;3.77;;;;;;;6.89;61.74;100931.91;20848775;28;20609;-86
2023/01/31 19:56:45;;;;;;;13.53;4.57;;;;;;;6.95;62.68;100947.53;20879440;28;20206;-87
2023/01/31 20:06:48;;;;;;;16.03;4.07;;;;;;;7.17;61.92;100934.09;20861550;28;20211;-87
2023/01/31 20:16:50;;;;;;;13.20;4.07;;;;;;;6.65;63.04;100953.16;20878199;28;20631;-89
2023/01/31 20:26:53;;;;;;;11.43;3.53;;;;;;;6.50;62.08;100940.06;20886498;28;20703;-84
2023/01/31 20:36:55;;;;;;;16.30;3.60;;;;;;;6.74;60.75;100913.22;20885196;28;20563;-86
2023/01/31 20:46:57;;;;;;;13.07;4.17;;;;;;;6.33;62.97;100923.63;20889444;28;20265;-86
2023/01/31 20:56:59;;;;;;;13.57;3.90;;;;;;;6.58;60.56;100933.91;20901038;28;20674;-87
2023/01/31 21:07:02;;;;;;;14.97;4.63;;;;;;;7.36;57.74;100920.31;20874255;28;20814;-86
2023/01/31 21:17:05;;;;;;;17.37;5.53;;;;;;;6.69;61.56;100916.03;20898019;28;20223;-87
2023/01/31 21:27:07;;;;;;;16.53;6.93;;;;;;;6.92;60.33;100896.97;20895219;28;20293;-86
2023/01/31 21:37:10;;;;;;;12.40;5.57;;;;;;;6.46;62.25;100885.94;20895769;28;20215;-87
2023/01/31 21:47:14;;;;;;;12.03;4.70;;;;;;;6.44;61.24;100921.66;20884278;28;20505;-86
2023/01/31 21:57:16;;;;;;;13.23;4.77;;;;;;;6.31;62.21;100905.47;20865094;28;20196;-87
2023/01/31 22:07:19;;;;;;;10.73;4.37;;;;;;;6.63;62.40;100882.81;20870755;28;20259;-87
2023/01/31 22:17:22;;;;;;;14.17;4.57;;;;;;;6.47;62.23;100880.03;20908990;28;20621;-88
2023/01/31 22:27:24;;;;;;;14.40;4.60;;;;;;;6.62;61.75;100881.13;20893055;28;20220;-85
2023/01/31 22:37:26;;;;;;;20.00;5.33;;;;;;;6.42;62.75;100873.63;20892228;28;20286;-84
2023/01/31 22:47:29;;;;;;;17.63;4.20;;;;;;;6.70;61.69;100861.88;20882187;28;20243;-85
2023/01/31 22:57:31;;;;;;;10.43;4.27;;;;;;;6.44;61.94;100863.88;20914242;28;20262;-88
2023/01/31 23:07:33;;;;;;;14.20;5.33;;;;;;;6.46;63.16;100841.28;20913009;28;20632;-87
2023/01/31 23:17:38;;;;;;;14.27;7.50;;;;;;;6.23;64.62;100841.84;20895688;28;20246;-88
2023/01/31 23:27:42;;;;;;;16.50;9.07;;;;;;;6.25;65.69;100836.81;20903697;28;20221;-87
2023/01/31 23:37:44;;;;;;;18.10;10.37;;;;;;;5.78;68.21;100832.38;20896632;28;20211;-84
2023/01/31 23:47:49;;;;;;;20.77;11.17;;;;;;;6.77;63.72;100816.88;20903308;28;20615;-87
2023/01/31 23:57:51;;;;;;;22.40;10.33;;;;;;;6.71;65.07;100813.28;20870832;28;20253;-86
